Аэропорт
Шуанлю (ZUUU)

 ZUUU / CTU

China
CN-51
Чэнду
 30.57850, 103.94700  / 1625 ft

 ZUUU 182200Z 00000MPS CAVOK 21/19 Q1015 NOSIG
 TAF ZUUU 181510Z 1818/1918 22003MPS 5000 BR SCT050 TX26/1907Z TN19/1822Z TEMPO 1914/1918 -SHRA FEW030CB SCT030

2020 © VATRUS division (Privacy Policy)